Time;durP1;ratioP1;P1;durP2;ratioP2;P2;SDS_P1;SDS_P2;PMS_P1;PMS_P2;Temp;Humidity;BMP_temperature;BMP_pressure;BME280_temperature;BME280_humidity;BME280_pressure;Samples;Min_cycle;Max_cycle;Signal;HPM_P1;HPM_P2
2022/08/13 00:01:24;;;;;;;12.70;10.02;;;537.60;2406.40;;;;;;5094652;28;20094;-77
2022/08/13 00:03:52;;;;;;;11.40;9.82;;;537.80;2406.40;;;;;;5095196;28;20012;-78
2022/08/13 00:06:59;;;;;;;12.30;9.90;;;537.60;2406.40;;;;;;5090062;28;20114;-76
2022/08/13 00:09:09;;;;;;;7.88;5.88;;;512.60;2380.80;;;;;;5094791;28;20074;-79
2022/08/13 00:14:26;;;;;;;12.60;9.20;;;512.20;2380.80;;;;;;5092459;28;20078;-78
2022/08/13 00:16:54;;;;;;;13.02;8.75;;;512.20;2380.80;;;;;;5092924;28;20027;-77
2022/08/13 00:19:21;;;;;;;12.98;9.32;;;512.60;2380.80;;;;;;5093287;28;20448;-78
2022/08/13 00:21:47;;;;;;;10.73;7.75;;;537.60;2406.40;;;;;;5127198;27;20083;-76
2022/08/13 00:24:14;;;;;;;9.20;7.63;;;537.90;2406.40;;;;;;5099539;28;20021;-78
2022/08/13 00:26:41;;;;;;;9.63;8.40;;;;;;;;;;5093253;28;20028;-78
2022/08/13 00:29:09;;;;;;;14.40;7.75;;;;;;;;;;5092360;28;20423;-76
2022/08/13 00:31:37;;;;;;;10.05;7.35;;;;;;;;;;5126645;27;20488;-76
2022/08/13 00:34:03;;;;;;;9.50;7.15;;;;;;;;;;5094125;28;20395;-77
2022/08/13 00:36:31;;;;;;;10.50;7.40;;;;;;;;;;5092993;28;20074;-78
2022/08/13 00:38:57;;;;;;;9.38;7.15;;;538.10;2406.40;;;;;;5093284;28;20482;-77
2022/08/13 00:41:38;;;;;;;9.65;7.35;;;;;;;;;;5126384;27;20024;-76
2022/08/13 00:44:05;;;;;;;7.32;6.32;;;;;;;;;;5093468;28;20016;-78
2022/08/13 00:46:32;;;;;;;8.80;6.78;;;;;;;;;;5094271;28;20021;-77
2022/08/13 00:48:58;;;;;;;8.10;6.88;;;563.20;2432.00;;;;;;5092796;28;20024;-75
2022/08/13 00:51:25;;;;;;;9.40;7.40;;;;;;;;;;5093775;28;20024;-76
2022/08/13 00:53:51;;;;;;;10.30;6.32;;;;;;;;;;5092941;28;20451;-74
2022/08/13 00:56:18;;;;;;;9.63;7.50;;;;;;;;;;5091771;28;20187;-74
2022/08/13 00:58:44;;;;;;;8.52;6.90;;;;;;;;;;5091316;28;20028;-74
2022/08/13 01:01:13;;;;;;;9.43;7.05;;;;;;;;;;5091971;28;20344;-75
2022/08/13 01:03:40;;;;;;;20.15;6.95;;;;;;;;;;5093066;28;20024;-76
2022/08/13 01:06:10;;;;;;;9.95;7.32;;;;;;;;;;5124537;27;21094;-75
2022/08/13 01:08:40;;;;;;;11.07;7.50;;;;;;;;;;5091380;28;20061;-75
2022/08/13 01:11:11;;;;;;;12.57;7.10;;;;;;;;;;5125532;27;20020;-75
2022/08/13 01:13:38;;;;;;;9.75;7.70;;;;;;;;;;5093443;28;20027;-77
2022/08/13 01:16:06;;;;;;;8.50;7.57;;;;;;;;;;5117805;27;20132;-76
2022/08/13 01:18:36;;;;;;;10.43;7.22;;;;;;;;;;5086014;28;20020;-78
2022/08/13 01:21:15;;;;;;;11.13;7.43;;;;;;;;;;5092315;28;20495;-75
2022/08/13 01:23:46;;;;;;;9.07;7.00;;;;;;;;;;5090712;28;20022;-76
2022/08/13 01:26:15;;;;;;;11.55;8.93;;;;;;;;;;5097498;28;20151;-77
2022/08/13 01:28:41;;;;;;;11.70;7.53;;;;;;;;;;5091073;28;20099;-77
2022/08/13 01:31:08;;;;;;;8.73;7.47;;;;;;;;;;5092518;28;20051;-77
2022/08/13 01:33:38;;;;;;;8.40;7.40;;;;;;;;;;5092219;28;20442;-78
2022/08/13 01:36:05;;;;;;;12.02;7.55;;;;;;;;;;5092410;28;20015;-77
2022/08/13 01:38:32;;;;;;;8.75;7.60;;;;;;;;;;5125237;27;20062;-78
2022/08/13 01:40:58;;;;;;;13.23;7.50;;;;;;;;;;5091941;28;20119;-78
2022/08/13 01:43:28;;;;;;;10.25;6.78;;;;;;;;;;5091952;28;20020;-78
2022/08/13 01:45:55;;;;;;;7.97;6.90;;;;;;;;;;5124668;27;20486;-78
2022/08/13 01:51:09;;;;;;;11.57;8.57;;;;;;;;;;5092355;28;20034;-78
2022/08/13 01:53:36;;;;;;;8.73;7.82;;;;;;;;;;5089445;28;20025;-78
2022/08/13 01:56:02;;;;;;;8.70;7.88;;;;;;;;;;5091619;28;20069;-78
2022/08/13 01:58:29;;;;;;;11.02;8.10;;;;;;;;;;5092400;28;20429;-77
2022/08/13 02:00:57;;;;;;;9.52;7.95;;;;;;;;;;5088825;28;20388;-77
2022/08/13 02:03:24;;;;;;;13.35;9.90;;;;;;;;;;5091397;28;20095;-75
2022/08/13 02:05:51;;;;;;;14.60;9.93;;;;;;;;;;5090340;28;20063;-76
2022/08/13 02:08:22;;;;;;;15.40;12.95;;;;;;;;;;5091968;28;20070;-77
2022/08/13 02:10:48;;;;;;;12.57;11.15;;;;;;;;;;5091601;28;20016;-76
2022/08/13 02:13:17;;;;;;;12.73;10.98;;;;;;;;;;5091402;28;20559;-78
2022/08/13 02:15:44;;;;;;;14.07;11.65;;;;;;;;;;5091645;28;20020;-79
2022/08/13 02:18:14;;;;;;;13.27;9.88;;;;;;;;;;5090341;28;20024;-78
2022/08/13 02:20:41;;;;;;;14.00;10.05;;;;;;;;;;5091305;28;20384;-78
2022/08/13 02:23:07;;;;;;;11.75;8.80;;;;;;;;;;5090200;28;20025;-79
2022/08/13 02:25:36;;;;;;;9.77;8.45;;;;;;;;;;5091479;28;20103;-77
2022/08/13 02:28:02;;;;;;;10.02;8.93;;;;;;;;;;5094949;28;20016;-78
2022/08/13 02:30:29;;;;;;;12.13;8.35;;;;;;;;;;5090956;28;20020;-77
2022/08/13 02:32:58;;;;;;;9.98;7.50;;;;;;;;;;5121324;27;20020;-79
2022/08/13 02:35:25;;;;;;;14.95;8.82;;;;;;;;;;5091740;28;20375;-79
2022/08/13 02:37:51;;;;;;;11.25;8.88;;;;;;;;;;5091162;28;20027;-78
2022/08/13 02:43:02;;;;;;;9.63;8.55;;;;;;;;;;5090988;28;20031;-77
2022/08/13 02:45:28;;;;;;;10.40;8.40;;;;;;;;;;5089743;28;20093;-78
2022/08/13 02:47:57;;;;;;;8.45;7.35;;;;;;;;;;5090917;28;20044;-78
2022/08/13 02:50:24;;;;;;;14.77;9.02;;;;;;;;;;5123589;27;20471;-76
2022/08/13 02:52:51;;;;;;;13.73;8.40;;;;;;;;;;5123890;27;20017;-75
2022/08/13 02:55:22;;;;;;;9.27;8.00;;;;;;;;;;5073231;28;20021;-78
2022/08/13 02:57:48;;;;;;;10.38;9.20;;;;;;;;;;5123708;27;20057;-78
2022/08/13 03:00:15;;;;;;;8.98;8.18;;;;;;;;;;5090654;28;20032;-75
2022/08/13 03:02:44;;;;;;;10.50;8.75;;;;;;;;;;5090748;28;20023;-79
2022/08/13 03:05:10;;;;;;;16.38;10.10;;;;;;;;;;5091211;28;20016;-79
2022/08/13 03:07:40;;;;;;;10.57;8.77;;;;;;;;;;5123659;27;20066;-77
2022/08/13 03:10:09;;;;;;;14.02;8.68;;;;;;;;;;5090882;28;20031;-78
2022/08/13 03:12:37;;;;;;;11.68;7.43;;;;;;;;;;5118542;27;20047;-77
2022/08/13 03:15:04;;;;;;;12.20;9.15;;;;;;;;;;5090933;28;20013;-78
2022/08/13 03:17:30;;;;;;;22.00;19.70;;;;;;;;;;5091021;28;20485;-77
2022/08/13 03:19:56;;;;;;;12.80;9.90;;;;;;;;;;5090673;28;20047;-76
2022/08/13 03:22:22;;;;;;;19.67;11.70;;;;;;;;;;5089801;28;20471;-75
2022/08/13 03:24:48;;;;;;;11.70;9.38;;;;;;;;;;5123773;27;20725;-78
2022/08/13 03:27:14;;;;;;;10.80;7.80;;;;;;;;;;5090385;28;20046;-77
2022/08/13 03:29:40;;;;;;;10.05;8.15;;;;;;;;;;5125550;27;20020;-78
2022/08/13 03:32:06;;;;;;;14.18;9.07;;;;;;;;;;5120380;27;20008;-77
2022/08/13 03:34:32;;;;;;;13.85;12.38;;;;;;;;;;5088073;28;20012;-79
2022/08/13 03:36:58;;;;;;;10.40;8.45;;;;;;;;;;5089192;28;20016;-77
2022/08/13 03:39:25;;;;;;;10.80;8.70;;;;;;;;;;5085440;28;20042;-75
2022/08/13 03:41:51;;;;;;;11.10;9.13;;;;;;;;;;5083856;28;20020;-76
2022/08/13 03:44:17;;;;;;;10.18;8.63;;;;;;;;;;5083273;28;20467;-78
2022/08/13 03:46:44;;;;;;;11.90;9.55;;;;;;;;;;5084540;28;20038;-78
2022/08/13 03:49:10;;;;;;;12.73;9.32;;;;;;;;;;5084384;28;20379;-75
2022/08/13 03:51:36;;;;;;;11.13;7.75;;;;;;;;;;5084990;28;20105;-79
2022/08/13 03:54:02;;;;;;;8.65;7.75;;;;;;;;;;5084486;28;20088;-77
2022/08/13 03:56:28;;;;;;;13.07;7.13;;;;;;;;;;5083202;28;20039;-78
2022/08/13 03:58:55;;;;;;;12.32;7.22;;;;;;;;;;5084375;28;20024;-75
2022/08/13 04:01:21;;;;;;;9.82;7.72;;;;;;;;;;5083695;28;20093;-76
2022/08/13 04:03:47;;;;;;;9.05;7.35;;;;;;;;;;5083847;28;20032;-76
2022/08/13 04:06:16;;;;;;;10.15;7.78;;;;;;;;;;5085705;28;20039;-76
2022/08/13 04:08:43;;;;;;;9.18;7.07;;;;;;;;;;5085242;28;20463;-76
2022/08/13 04:11:11;;;;;;;10.13;7.13;;;;;;;;;;5083627;28;20020;-76
2022/08/13 04:13:37;;;;;;;8.70;7.78;;;;;;;;;;5083418;28;20055;-77
2022/08/13 04:16:11;;;;;;;15.30;8.48;;;;;;;;;;5109336;27;20131;-75
2022/08/13 04:18:37;;;;;;;14.63;8.48;;;;;;;;;;5082626;28;21877;-75
2022/08/13 04:21:08;;;;;;;11.60;8.27;;;;;;;;;;5107005;27;20060;-77
2022/08/13 04:23:36;;;;;;;11.68;9.25;;;;;;;;;;5082512;28;20024;-76
2022/08/13 04:26:03;;;;;;;10.75;8.88;;;;;;;;;;5083878;28;20089;-76
2022/08/13 04:28:29;;;;;;;12.00;6.97;;;;;;;;;;5083902;28;20027;-77
2022/08/13 04:30:56;;;;;;;14.65;8.82;;;;;;;;;;5111044;27;20032;-76
2022/08/13 04:33:23;;;;;;;10.98;7.78;;;;;;;;;;5107759;27;20027;-75
2022/08/13 04:35:49;;;;;;;11.43;9.00;;;;;;;;;;5111245;27;20032;-75
2022/08/13 04:38:15;;;;;;;15.00;9.27;;;;;;;;;;5087234;28;20032;-78
2022/08/13 04:40:42;;;;;;;10.90;8.88;;;;;;;;;;5086696;28;20036;-75
2022/08/13 04:43:10;;;;;;;11.07;9.60;;;;;;;;;;5111135;27;20073;-77
2022/08/13 04:45:36;;;;;;;14.25;9.75;;;;;;;;;;5087748;28;20130;-75
2022/08/13 04:48:13;;;;;;;13.57;10.80;;;;;;;;;;5087045;28;20028;-78
2022/08/13 04:50:40;;;;;;;15.70;11.80;;;;;;;;;;5087481;28;20016;-77
2022/08/13 04:53:08;;;;;;;16.65;10.55;;;;;;;;;;5111616;27;20024;-78
2022/08/13 04:55:34;;;;;;;17.08;12.45;;;;;;;;;;5110639;27;20105;-78
2022/08/13 04:58:01;;;;;;;16.90;12.45;;;;;;;;;;5083977;28;20503;-76
2022/08/13 05:00:32;;;;;;;14.45;9.88;;;;;;;;;;5110526;27;20402;-77
2022/08/13 05:03:07;;;;;;;10.52;9.43;;;;;;;;;;5109096;27;20032;-79
2022/08/13 05:05:33;;;;;;;9.98;8.95;;;;;;;;;;5084605;28;20229;-77
2022/08/13 05:07:59;;;;;;;13.88;11.70;;;;;;;;;;5106805;27;20024;-76
2022/08/13 05:10:25;;;;;;;12.02;10.35;;;;;;;;;;5084916;28;20542;-78
2022/08/13 05:12:52;;;;;;;14.80;8.82;;;;;;;;;;5083875;28;20028;-76
2022/08/13 05:15:18;;;;;;;16.77;9.27;;;;;;;;;;5086940;28;21671;-77
2022/08/13 05:17:44;;;;;;;12.82;8.93;;;;;;;;;;5109422;27;20024;-76
2022/08/13 05:20:13;;;;;;;12.95;8.63;;;;;;;;;;5085782;28;20132;-76
2022/08/13 05:22:39;;;;;;;9.70;8.63;;;;;;;;;;5111662;27;20032;-76
2022/08/13 05:25:06;;;;;;;10.88;9.77;;;;;;;;;;5086520;28;20024;-76
2022/08/13 05:27:32;;;;;;;13.98;8.90;;;;;;;;;;5086283;28;20028;-77
2022/08/13 05:29:58;;;;;;;10.77;9.50;;;;;;;;;;5086429;28;20051;-76
2022/08/13 05:32:27;;;;;;;11.02;9.63;;;;;;;;;;5088904;28;20327;-77
2022/08/13 05:34:53;;;;;;;14.65;11.23;;;;;;;;;;5087225;28;20028;-76
2022/08/13 05:37:19;;;;;;;10.15;8.60;;;;;;;;;;5110348;27;20069;-76
2022/08/13 05:39:46;;;;;;;11.35;10.00;;;;;;;;;;5111427;27;20071;-77
2022/08/13 05:42:13;;;;;;;10.18;8.48;;;;;;;;;;5111907;27;20483;-75
2022/08/13 05:44:39;;;;;;;8.93;7.53;;;;;;;;;;5108938;27;20501;-76
2022/08/13 05:47:06;;;;;;;9.30;8.18;;;;;;;;;;5086688;28;20111;-76
2022/08/13 05:49:33;;;;;;;11.68;10.00;;;;;;;;;;5085098;28;20039;-77
2022/08/13 05:51:59;;;;;;;10.80;9.30;;;;;;;;;;5087984;28;20043;-76
2022/08/13 05:54:25;;;;;;;11.15;8.80;;;;;;;;;;5085982;28;20035;-76
2022/08/13 05:56:52;;;;;;;12.43;8.85;;;;;;;;;;5085588;28;20085;-76
2022/08/13 06:04:48;;;;;;;16.10;7.40;;;;;;;;;;5085067;28;20039;-75
2022/08/13 06:07:19;;;;;;;14.25;7.00;;;;;;;;;;5085831;28;20028;-76
2022/08/13 06:09:45;;;;;;;9.90;7.13;;;;;;;;;;5086353;28;20034;-77
2022/08/13 06:12:11;;;;;;;10.48;5.95;;;;;;;;;;5085099;28;20024;-76
2022/08/13 06:14:38;;;;;;;9.82;6.85;;;;;;;;;;5085386;28;20027;-76
2022/08/13 06:17:04;;;;;;;9.05;7.45;;;;;;;;;;5084933;28;20107;-77
2022/08/13 06:19:34;;;;;;;10.15;7.00;;;;;;;;;;5086273;28;20127;-75
2022/08/13 06:22:04;;;;;;;7.18;6.13;;;;;;;;;;5085377;28;20055;-77
2022/08/13 06:24:32;;;;;;;6.88;5.85;;;;;;;;;;5084929;28;20039;-76
2022/08/13 06:27:04;;;;;;;12.85;6.28;;;;;;;;;;5085164;28;20034;-78
2022/08/13 06:29:31;;;;;;;8.75;6.13;;;;;;;;;;5085582;28;20443;-77
2022/08/13 06:31:57;;;;;;;7.95;6.88;;;;;;;;;;5084042;28;20110;-77
2022/08/13 06:34:23;;;;;;;7.60;5.95;;;;;;;;;;5085410;28;20020;-76
2022/08/13 06:36:50;;;;;;;10.13;5.88;;;;;;;;;;5108881;27;20470;-77
2022/08/13 06:39:17;;;;;;;9.43;7.53;;;;;;;;;;5089906;28;20097;-76
2022/08/13 06:41:45;;;;;;;6.15;5.55;;;;;;;;;;5085168;28;20028;-76
2022/08/13 06:44:12;;;;;;;7.68;6.22;;;;;;;;;;5084661;28;20052;-76
2022/08/13 06:46:39;;;;;;;6.90;6.20;;;;;;;;;;5085072;28;20020;-75
2022/08/13 06:49:05;;;;;;;8.10;6.90;;;;;;;;;;5084630;28;20020;-77
2022/08/13 06:51:32;;;;;;;10.55;6.63;;;;;;;;;;5084859;28;20024;-77
2022/08/13 06:53:58;;;;;;;9.05;6.97;;;;;;;;;;5110174;27;20039;-76
2022/08/13 06:56:26;;;;;;;9.73;6.53;;;;;;;;;;5085555;28;20043;-78
2022/08/13 06:58:53;;;;;;;7.68;6.32;;;;;;;;;;5109934;27;20024;-77
2022/08/13 07:01:24;;;;;;;10.18;5.18;;;;;;;;;;5110145;27;20044;-77
2022/08/13 07:03:51;;;;;;;9.38;6.20;;;;;;;;;;5109512;27;20509;-78
2022/08/13 07:06:18;;;;;;;8.43;5.35;;;;;;;;;;5110708;27;20055;-78
2022/08/13 07:08:45;;;;;;;6.05;5.20;;;;;;;;;;5110532;27;20035;-76
2022/08/13 07:11:23;;;;;;;9.43;5.38;;;;;;;;;;5084397;28;20466;-74
2022/08/13 07:13:51;;;;;;;9.27;5.68;;;;;;;;;;5105109;27;20028;-77
2022/08/13 07:16:19;;;;;;;22.77;14.50;;;;;;;;;;5084411;28;20384;-76
2022/08/13 07:18:49;;;;;;;6.72;5.97;;;;;;;;;;5111556;27;20070;-78
2022/08/13 07:21:16;;;;;;;10.50;6.28;;;;;;;;;;5109183;27;20069;-78
2022/08/13 07:23:43;;;;;;;10.02;7.38;;;;;;;;;;5085583;28;20032;-79
2022/08/13 07:26:12;;;;;;;10.45;9.07;;;;;;;;;;5085172;28;20020;-77
2022/08/13 07:28:38;;;;;;;20.73;16.83;;;;;;;;;;5085526;28;20020;-78
2022/08/13 07:31:06;;;;;;;23.42;20.98;;;;;;;;;;5084673;28;20099;-77
2022/08/13 07:33:34;;;;;;;14.77;8.82;;;;;;;;;;5088566;28;20020;-77
2022/08/13 07:36:05;;;;;;;10.15;7.88;;;;;;;;;;5111359;27;20066;-77
2022/08/13 07:38:31;;;;;;;15.55;10.10;;;;;;;;;;5085213;28;20028;-78
2022/08/13 07:40:59;;;;;;;10.23;5.95;;;;;;;;;;5084700;28;20552;-76
2022/08/13 07:43:26;;;;;;;6.97;5.47;;;;;;;;;;5110860;27;20024;-78
2022/08/13 07:46:19;;;;;;;9.30;6.45;;;;;;;;;;5084251;28;20020;-79
2022/08/13 07:48:52;;;;;;;12.35;8.85;;;;;;;;;;5084626;28;20063;-78
2022/08/13 07:51:21;;;;;;;;;;;;;;;;;;5088073;28;20494;-78
2022/08/13 07:53:54;;;;;;;6.88;5.70;;;;;;;;;;5085489;28;19908;-79
2022/08/13 07:56:31;;;;;;;8.70;5.97;;;;;;;;;;5082870;28;20565;-75
2022/08/13 07:59:00;;;;;;;8.35;7.50;;;;;;;;;;5084638;28;20746;-75
2022/08/13 08:01:27;;;;;;;13.52;11.30;;;;;;;;;;5082816;28;20414;-75
2022/08/13 08:03:56;;;;;;;7.47;5.75;;;;;;;;;;5086092;28;20024;-75
2022/08/13 08:06:23;;;;;;;7.15;4.55;;;;;;;;;;5084035;28;20028;-74
2022/08/13 08:08:53;;;;;;;6.05;5.22;;;;;;;;;;5112064;27;20024;-77
2022/08/13 08:14:05;;;;;;;4.90;4.40;;;;;;;;;;5090186;28;20100;-75
2022/08/13 08:16:32;;;;;;;8.77;6.75;;;;;;;;;;5089765;28;20402;-75
2022/08/13 08:18:59;;;;;;;14.20;9.15;;;;;;;;;;5088016;28;20111;-74
2022/08/13 08:21:26;;;;;;;9.10;6.78;;;;;;;;;;5088262;28;20112;-78
2022/08/13 08:23:59;;;;;;;30.50;27.30;;;;;;;;;;5091104;28;20032;-79
2022/08/13 08:26:30;;;;;;;12.52;8.15;;;;;;;;;;5090745;28;20090;-78
2022/08/13 08:28:57;;;;;;;11.85;10.27;;;;;;;;;;5114584;27;20437;-74
2022/08/13 08:31:23;;;;;;;8.52;7.22;;;;;;;;;;5088187;28;20020;-77
2022/08/13 08:33:50;;;;;;;12.27;9.25;;;;;;;;;;5088152;28;20021;-77
2022/08/13 08:36:16;;;;;;;7.43;6.00;;;;;;;;;;5093585;28;20032;-76
2022/08/13 08:44:16;;;;;;;6.60;4.97;;;;;;;;;;5086244;28;20782;-73
2022/08/13 08:46:44;;;;;;;7.10;5.28;;;;;;;;;;5086703;28;20065;-76
2022/08/13 08:49:10;;;;;;;6.35;5.70;;;;;;;;;;5086903;28;20028;-73
2022/08/13 08:51:36;;;;;;;9.48;5.05;;;;;;;;;;5086731;28;20074;-73
2022/08/13 08:54:03;;;;;;;9.35;5.68;;;;;;;;;;5110321;27;20027;-74
2022/08/13 08:56:29;;;;;;;6.53;5.07;;;;;;;;;;5087672;28;20095;-74
2022/08/13 08:58:57;;;;;;;6.43;4.40;;;;;;;;;;5088233;28;20119;-74
2022/08/13 09:01:25;;;;;;;5.60;5.00;;;;;;;;;;5086812;28;20036;-75
2022/08/13 09:03:52;;;;;;;6.40;4.63;;;;;;;;;;5089225;28;20408;-74
2022/08/13 09:06:19;;;;;;;6.65;5.15;;;;;;;;;;5087329;28;20035;-74
2022/08/13 09:08:46;;;;;;;7.13;5.18;;;;;;;;;;5087673;28;20032;-79
2022/08/13 09:11:14;;;;;;;8.68;6.38;;;;;;;;;;5116149;27;20028;-78
2022/08/13 09:13:42;;;;;;;7.82;7.03;;;;;;;;;;5086479;28;20092;-80
2022/08/13 09:16:08;;;;;;;6.30;5.03;;;;;;;;;;5088105;28;20088;-79
2022/08/13 09:18:34;;;;;;;5.68;4.85;;;;;;;;;;5110155;27;20044;-80
2022/08/13 09:21:00;;;;;;;12.80;4.93;;;;;;;;;;5085762;28;20048;-79
2022/08/13 09:23:28;;;;;;;6.75;5.60;;;;;;;;;;5087392;28;20039;-78
2022/08/13 09:25:54;;;;;;;7.05;5.00;;;;;;;;;;5087554;28;20024;-81
2022/08/13 09:28:23;;;;;;;6.10;4.75;;;;;;;;;;5112991;27;20029;-81
2022/08/13 09:30:49;;;;;;;9.48;4.97;;;;;;;;;;5087489;28;20070;-81
2022/08/13 09:33:16;;;;;;;9.15;5.50;;;;;;;;;;5088263;28;20118;-81
2022/08/13 09:35:42;;;;;;;10.80;6.85;;;;;;;;;;5088256;28;20027;-83
2022/08/13 09:38:08;;;;;;;10.13;5.00;;;;;;;;;;5089264;28;20028;-77
2022/08/13 09:40:38;;;;;;;5.93;4.75;;;;;;;;;;5087522;28;20517;-78
2022/08/13 09:43:08;;;;;;;7.07;4.78;;;;;;;;;;5087130;28;20034;-81
2022/08/13 09:45:34;;;;;;;9.65;5.18;;;;;;;;;;5088402;28;20022;-80
2022/08/13 09:48:02;;;;;;;6.13;5.18;;;;;;;;;;5111827;27;20028;-80
2022/08/13 09:50:28;;;;;;;7.95;4.90;;;;;;;;;;5086934;28;20704;-78
2022/08/13 09:52:56;;;;;;;7.10;5.97;;;;;;;;;;5086344;28;20036;-82
2022/08/13 09:55:25;;;;;;;10.68;7.20;;;;;;;;;;5110559;27;20431;-78
2022/08/13 09:57:58;;;;;;;12.20;8.43;;;;;;;;;;5101848;28;20031;-78
2022/08/13 10:00:27;;;;;;;8.70;5.50;;;;;;;;;;5110297;27;20144;-77
2022/08/13 10:02:56;;;;;;;6.10;5.40;;;;;;;;;;5086855;28;20588;-81
2022/08/13 10:05:25;;;;;;;12.60;9.82;;;;;;;;;;5110376;27;20123;-78
2022/08/13 10:07:51;;;;;;;11.00;7.72;;;;;;;;;;5084898;28;20407;-77
2022/08/13 10:10:17;;;;;;;6.80;5.07;;;;;;;;;;5086625;28;20028;-78
2022/08/13 10:12:43;;;;;;;7.25;5.32;;;;;;;;;;5085532;28;20115;-79
2022/08/13 10:15:10;;;;;;;9.35;5.70;;;;;;;;;;5085187;28;21208;-78
2022/08/13 10:17:46;;;;;;;6.63;5.63;;;;;;;;;;5109603;27;20020;-78
2022/08/13 10:20:13;;;;;;;22.13;19.83;;;;;;;;;;5111423;27;20087;-78
2022/08/13 10:22:39;;;;;;;9.70;7.40;;;;;;;;;;5085129;28;20069;-77
2022/08/13 10:25:05;;;;;;;6.45;5.20;;;;;;;;;;5085629;28;20037;-78
2022/08/13 10:27:35;;;;;;;7.85;5.85;;;;;;;;;;5086686;28;20105;-78
2022/08/13 10:30:01;;;;;;;22.40;17.98;;;;;;;;;;5124392;27;20024;-79
2022/08/13 10:32:29;;;;;;;9.93;6.45;;;;;;;;;;5091220;28;20025;-79
2022/08/13 10:34:55;;;;;;;7.38;4.55;;;;;;;;;;5124174;27;20152;-79
2022/08/13 10:37:21;;;;;;;13.65;9.50;;;;;;;;;;5077855;28;20025;-79
2022/08/13 10:39:47;;;;;;;11.27;9.63;;;;;;;;;;5124748;27;20127;-77
2022/08/13 10:42:13;;;;;;;10.68;8.65;;;;;;;;;;5124417;27;20024;-82
2022/08/13 10:44:42;;;;;;;9.63;5.45;;;;;;;;;;5125828;27;20103;-79
2022/08/13 10:47:08;;;;;;;6.70;5.40;;;;;;;;;;5091255;28;20056;-78
2022/08/13 10:49:34;;;;;;;9.90;8.63;;;;;;;;;;5124204;27;20024;-78
2022/08/13 10:52:00;;;;;;;5.78;5.03;;;;;;;;;;5117026;27;20099;-82
2022/08/13 10:54:26;;;;;;;15.18;12.60;;;;;;;;;;5085129;28;20016;-82
2022/08/13 10:56:52;;;;;;;11.00;9.38;;;;;;;;;;5124430;27;20077;-83
2022/08/13 10:59:18;;;;;;;6.43;5.40;;;;;;;;;;5094027;28;20483;-83
2022/08/13 11:01:44;;;;;;;13.82;12.40;;;;;;;;;;5092045;28;20470;-83
2022/08/13 11:04:10;;;;;;;6.95;5.57;;;;;;;;;;5081884;28;20480;-79
2022/08/13 11:06:37;;;;;;;6.22;5.63;;;;;;;;;;5087816;28;20024;-82
2022/08/13 11:09:04;;;;;;;7.32;5.68;;;;;;;;;;5124557;27;20478;-82
2022/08/13 11:11:30;;;;;;;23.20;19.17;;;;;;;;;;5091789;28;20058;-83
2022/08/13 11:13:57;;;;;;;10.55;7.20;;;;;;;;;;5118229;27;20028;-79
2022/08/13 11:16:56;;;;;;;9.50;6.68;;;;;;;;;;5116514;27;20024;-78
2022/08/13 11:19:15;;;;;;;9.35;7.97;;;;;;;;;;5080629;28;20478;-82
2022/08/13 11:21:45;;;;;;;7.68;6.18;;;;;;;;;;5090849;28;20125;-80
2022/08/13 11:24:12;;;;;;;14.18;12.80;;;;;;;;;;5077706;28;20024;-79
2022/08/13 11:26:38;;;;;;;14.93;13.38;;;;;;;;;;5091778;28;20091;-82
2022/08/13 11:29:04;;;;;;;8.13;7.32;;;;;;;;;;5091511;28;20100;-82
2022/08/13 11:31:32;;;;;;;9.52;6.95;;;;;;;;;;5091519;28;20483;-81
2022/08/13 11:33:58;;;;;;;8.80;6.93;;;;;;;;;;5123916;27;20048;-83
2022/08/13 11:36:25;;;;;;;7.30;6.60;;;;;;;;;;5090386;28;20020;-82
2022/08/13 11:38:51;;;;;;;20.75;18.70;;;;;;;;;;5076843;28;20496;-81
2022/08/13 11:41:17;;;;;;;9.55;7.03;;;;;;;;;;5124376;27;20077;-81
2022/08/13 11:43:43;;;;;;;9.25;7.03;;;;;;;;;;5089738;28;20028;-83
2022/08/13 11:46:09;;;;;;;8.43;7.53;;;;;;;;;;5091775;28;20028;-83
2022/08/13 11:48:35;;;;;;;8.52;7.63;;;;;;;;;;5117628;28;20386;-84
2022/08/13 11:51:01;;;;;;;11.57;8.13;;;;;;;;;;5084548;28;20012;-83
2022/08/13 11:53:27;;;;;;;7.32;6.47;;;;;;;;;;5092438;28;20110;-82
2022/08/13 11:55:53;;;;;;;8.07;7.25;;;;;;;;;;5093699;28;20020;-81
2022/08/13 11:58:19;;;;;;;10.32;8.70;;;;;;;;;;5077204;28;20035;-82
2022/08/13 12:00:45;;;;;;;12.75;9.20;;;;;;;;;;5124710;27;20036;-81
2022/08/13 12:03:12;;;;;;;9.98;7.82;;;;;;;;;;5124779;28;20020;-83
2022/08/13 12:05:38;;;;;;;8.20;7.38;;;;;;;;;;5122706;28;20020;-74
2022/08/13 12:08:12;;;;;;;16.42;14.73;;;;;;;;;;5090267;28;20137;-75
2022/08/13 12:10:38;;;;;;;32.15;28.73;;;;;;;;;;5122477;27;20028;-76
2022/08/13 12:13:04;;;;;;;8.55;6.25;;;;;;;;;;5090199;28;20111;-76
2022/08/13 12:15:30;;;;;;;9.52;8.52;;;;;;;;;;5090239;28;20075;-77
2022/08/13 12:17:56;;;;;;;10.35;8.85;;;;;;;;;;5089872;28;20486;-76
2022/08/13 12:20:23;;;;;;;9.95;8.95;;;;;;;;;;5087110;28;20044;-77
2022/08/13 12:22:50;;;;;;;14.57;9.05;;;;;;;;;;5102227;28;20021;-75
2022/08/13 12:25:16;;;;;;;9.23;8.20;;;;;;;;;;5103209;27;20134;-77
2022/08/13 12:27:42;;;;;;;17.08;13.60;;;;;;;;;;5122709;28;20613;-76
2022/08/13 12:30:08;;;;;;;20.33;18.15;;;;;;;;;;5090035;28;20024;-77
2022/08/13 12:32:34;;;;;;;9.30;8.50;;;;;;;;;;5088415;28;20016;-77
2022/08/13 12:35:00;;;;;;;8.77;8.07;;;;;;;;;;5088597;28;20093;-77
2022/08/13 12:37:26;;;;;;;11.48;9.65;;;;;;;;;;5075438;28;20024;-77
2022/08/13 12:39:53;;;;;;;8.75;7.85;;;;;;;;;;5088127;28;20043;-76
2022/08/13 12:42:20;;;;;;;9.90;8.73;;;;;;;;;;5125309;27;20024;-76
2022/08/13 12:44:46;;;;;;;10.48;9.38;;;;;;;;;;5089357;28;20386;-78
2022/08/13 12:47:12;;;;;;;9.77;8.77;;;;;;;;;;5122458;27;20013;-75
2022/08/13 12:49:38;;;;;;;8.88;7.90;;;;;;;;;;5122091;27;20406;-77
2022/08/13 12:52:04;;;;;;;9.55;8.43;;;;;;;;;;5089838;28;20031;-77
2022/08/13 12:54:30;;;;;;;8.63;7.82;;;;;;;;;;5088910;28;20024;-76
2022/08/13 12:56:56;;;;;;;8.82;7.93;;;;;;;;;;5092772;28;20436;-77
2022/08/13 12:59:22;;;;;;;7.90;7.15;;;;;;;;;;5093441;28;20031;-78
2022/08/13 13:01:52;;;;;;;11.25;8.85;;;;;;;;;;5125654;27;20032;-77
2022/08/13 13:04:18;;;;;;;9.20;7.13;;;;;;;;;;5093037;28;20148;-77
2022/08/13 13:06:44;;;;;;;9.13;8.23;;;;;;;;;;5091486;28;20032;-78
2022/08/13 13:09:10;;;;;;;9.30;8.27;;;;;;;;;;5093126;28;20066;-77
2022/08/13 13:11:38;;;;;;;8.63;7.88;;;;;;;;;;5091724;28;20103;-79
2022/08/13 13:14:04;;;;;;;10.30;8.35;;;;;;;;;;5125842;27;20016;-74
2022/08/13 13:16:32;;;;;;;7.78;7.03;;;;;;;;;;5092978;28;20024;-76
2022/08/13 13:18:58;;;;;;;10.02;7.60;;;;;;;;;;5093006;28;20008;-75
2022/08/13 13:21:25;;;;;;;8.23;7.53;;;;;;;;;;5092818;28;20056;-76
2022/08/13 13:23:51;;;;;;;10.43;8.52;;;;;;;;;;5093510;28;20055;-75
2022/08/13 13:26:19;;;;;;;8.38;7.43;;;;;;;;;;5090867;28;20020;-75
2022/08/13 13:28:54;;;;;;;8.38;7.50;;;;;;;;;;5094050;28;20024;-73
2022/08/13 13:31:20;;;;;;;8.63;7.22;;;;;;;;;;5081582;28;20023;-75
2022/08/13 13:33:46;;;;;;;13.95;8.45;;;;;;;;;;5097463;28;20509;-74
2022/08/13 13:36:12;;;;;;;9.68;8.77;;;;;;;;;;5092516;28;20026;-76
2022/08/13 13:38:40;;;;;;;8.75;7.85;;;;;;;;;;5092537;28;20025;-74
2022/08/13 13:41:07;;;;;;;8.10;7.30;;;;;;;;;;5092539;28;20506;-76
2022/08/13 13:43:34;;;;;;;7.65;6.93;;;;;;;;;;5092983;28;20020;-75
2022/08/13 13:46:00;;;;;;;9.15;8.07;;;;;;;;;;5094429;28;20024;-74
2022/08/13 13:48:31;;;;;;;8.52;7.63;;;;;;;;;;5086247;28;20031;-75
2022/08/13 13:50:58;;;;;;;12.30;8.23;;;;;;;;;;5084755;28;20028;-74
2022/08/13 13:53:28;;;;;;;10.50;9.38;;;;;;;;;;5124183;27;20028;-74
2022/08/13 13:55:55;;;;;;;15.05;11.43;;;;;;;;;;5092028;28;20483;-75
2022/08/13 13:58:22;;;;;;;10.18;8.05;;;;;;;;;;5116459;27;20028;-75
2022/08/13 14:00:48;;;;;;;11.07;8.85;;;;;;;;;;5124921;27;20538;-77
2022/08/13 14:03:17;;;;;;;10.75;8.30;;;;;;;;;;5089721;28;20024;-76
2022/08/13 14:05:43;;;;;;;11.00;9.07;;;;;;;;;;5091043;28;20049;-75
2022/08/13 14:08:10;;;;;;;10.07;9.18;;;;;;;;;;5077368;28;20032;-76
2022/08/13 14:10:36;;;;;;;13.05;10.88;;;;;;;;;;5091689;28;20050;-75
2022/08/13 14:13:03;;;;;;;23.77;21.33;;;;;;;;;;5091897;28;20018;-75
2022/08/13 14:15:33;;;;;;;24.20;21.95;;;;;;;;;;5091709;28;20020;-78
2022/08/13 14:18:00;;;;;;;13.40;12.20;;;;;;;;;;5080694;28;20028;-74
2022/08/13 14:20:27;;;;;;;12.85;10.10;;;;;;;;;;5089741;28;20059;-73
2022/08/13 14:22:53;;;;;;;13.45;10.38;;;;;;;;;;5124384;27;20046;-75
2022/08/13 14:25:20;;;;;;;31.85;28.58;;;;;;;;;;5124815;27;20028;-74
2022/08/13 14:27:46;;;;;;;29.90;27.08;;;;;;;;;;5116741;27;20020;-75
2022/08/13 14:30:13;;;;;;;33.80;27.45;;;;;;;;;;5117954;27;20036;-74
2022/08/13 14:32:41;;;;;;;18.83;16.75;;;;;;;;;;5087815;28;20023;-75
2022/08/13 14:35:14;;;;;;;13.18;11.80;;;;;;;;;;5091515;28;20066;-74
2022/08/13 14:37:41;;;;;;;12.45;11.13;;;;;;;;;;5091272;28;20024;-75
2022/08/13 14:40:09;;;;;;;11.73;10.63;;;;;;;;;;5090915;28;20081;-74
2022/08/13 14:42:43;;;;;;;15.73;14.02;;;;;;;;;;5091017;28;20492;-73
2022/08/13 14:47:56;;;;;;;17.15;14.88;;;;;;;;;;5090902;28;20098;-73
2022/08/13 14:50:23;;;;;;;15.65;11.90;;;;;;;;;;5091131;28;20065;-73
2022/08/13 14:52:50;;;;;;;16.70;13.95;;;;;;;;;;5091100;28;20050;-74
2022/08/13 14:55:17;;;;;;;16.77;14.88;;;;;;;;;;5077171;28;20027;-75